sensor_id;sensor_type;location;lat;lon;timestamp;P1;durP1;ratioP1;P2;durP2;ratioP2
25962;SDS011;13760;52.588;13.406;2023-09-19T00:00:18;8.00;;;2.67;;
25962;SDS011;13760;52.588;13.406;2023-09-19T00:02:46;4.30;;;2.42;;
25962;SDS011;13760;52.588;13.406;2023-09-19T00:05:16;5.45;;;2.22;;
25962;SDS011;13760;52.588;13.406;2023-09-19T00:07:42;8.02;;;2.65;;
25962;SDS011;13760;52.588;13.406;2023-09-19T00:10:07;5.63;;;2.38;;
25962;SDS011;13760;52.588;13.406;2023-09-19T00:12:34;5.57;;;2.40;;
25962;SDS011;13760;52.588;13.406;2023-09-19T00:15:00;5.55;;;2.53;;
25962;SDS011;13760;52.588;13.406;2023-09-19T00:17:26;4.85;;;2.45;;
25962;SDS011;13760;52.588;13.406;2023-09-19T00:19:55;5.07;;;2.58;;
25962;SDS011;13760;52.588;13.406;2023-09-19T00:22:21;6.72;;;2.70;;
25962;SDS011;13760;52.588;13.406;2023-09-19T00:24:46;8.48;;;3.05;;
25962;SDS011;13760;52.588;13.406;2023-09-19T00:27:12;6.07;;;2.72;;
25962;SDS011;13760;52.588;13.406;2023-09-19T00:29:37;3.85;;;2.30;;
25962;SDS011;13760;52.588;13.406;2023-09-19T00:32:04;5.22;;;2.65;;
25962;SDS011;13760;52.588;13.406;2023-09-19T00:34:31;8.50;;;2.60;;
25962;SDS011;13760;52.588;13.406;2023-09-19T00:36:59;9.52;;;2.53;;
25962;SDS011;13760;52.588;13.406;2023-09-19T00:39:24;5.13;;;2.30;;
25962;SDS011;13760;52.588;13.406;2023-09-19T00:41:50;5.25;;;2.13;;
25962;SDS011;13760;52.588;13.406;2023-09-19T00:44:16;4.53;;;2.30;;
25962;SDS011;13760;52.588;13.406;2023-09-19T00:46:42;5.15;;;2.60;;
25962;SDS011;13760;52.588;13.406;2023-09-19T00:49:08;5.47;;;2.72;;
25962;SDS011;13760;52.588;13.406;2023-09-19T00:51:34;7.25;;;2.42;;
25962;SDS011;13760;52.588;13.406;2023-09-19T00:54:01;7.30;;;2.30;;
25962;SDS011;13760;52.588;13.406;2023-09-19T00:56:27;6.68;;;2.33;;
25962;SDS011;13760;52.588;13.406;2023-09-19T00:58:53;5.40;;;2.40;;
25962;SDS011;13760;52.588;13.406;2023-09-19T01:01:19;5.00;;;2.15;;
25962;SDS011;13760;52.588;13.406;2023-09-19T01:03:45;4.20;;;2.10;;
25962;SDS011;13760;52.588;13.406;2023-09-19T01:06:11;6.07;;;2.42;;
25962;SDS011;13760;52.588;13.406;2023-09-19T01:08:37;6.47;;;2.50;;
25962;SDS011;13760;52.588;13.406;2023-09-19T01:11:13;6.05;;;2.85;;
25962;SDS011;13760;52.588;13.406;2023-09-19T01:16:33;5.70;;;2.80;;
25962;SDS011;13760;52.588;13.406;2023-09-19T01:19:11;5.00;;;2.53;;
25962;SDS011;13760;52.588;13.406;2023-09-19T01:22:00;4.20;;;2.35;;
25962;SDS011;13760;52.588;13.406;2023-09-19T01:27:30;7.63;;;2.38;;
25962;SDS011;13760;52.588;13.406;2023-09-19T01:30:09;9.48;;;4.40;;
25962;SDS011;13760;52.588;13.406;2023-09-19T01:32:39;15.75;;;7.53;;
25962;SDS011;13760;52.588;13.406;2023-09-19T01:35:06;9.70;;;3.90;;
25962;SDS011;13760;52.588;13.406;2023-09-19T01:37:37;4.65;;;2.47;;
25962;SDS011;13760;52.588;13.406;2023-09-19T01:40:06;5.90;;;2.33;;
25962;SDS011;13760;52.588;13.406;2023-09-19T01:45:37;6.82;;;2.28;;
25962;SDS011;13760;52.588;13.406;2023-09-19T01:51:03;6.93;;;2.83;;
25962;SDS011;13760;52.588;13.406;2023-09-19T01:53:44;5.80;;;1.98;;
25962;SDS011;13760;52.588;13.406;2023-09-19T01:56:32;4.72;;;2.55;;
25962;SDS011;13760;52.588;13.406;2023-09-19T01:59:07;4.10;;;2.40;;
25962;SDS011;13760;52.588;13.406;2023-09-19T02:01:36;4.70;;;2.28;;
25962;SDS011;13760;52.588;13.406;2023-09-19T02:04:03;4.95;;;2.05;;
25962;SDS011;13760;52.588;13.406;2023-09-19T02:06:29;5.97;;;2.30;;
25962;SDS011;13760;52.588;13.406;2023-09-19T02:08:54;4.10;;;1.90;;
25962;SDS011;13760;52.588;13.406;2023-09-19T02:11:20;4.82;;;2.30;;
25962;SDS011;13760;52.588;13.406;2023-09-19T02:13:46;5.47;;;2.20;;
25962;SDS011;13760;52.588;13.406;2023-09-19T02:16:11;6.90;;;2.22;;
25962;SDS011;13760;52.588;13.406;2023-09-19T02:18:37;4.03;;;2.05;;
25962;SDS011;13760;52.588;13.406;2023-09-19T02:21:04;6.93;;;2.22;;
25962;SDS011;13760;52.588;13.406;2023-09-19T02:23:31;5.20;;;2.20;;
25962;SDS011;13760;52.588;13.406;2023-09-19T02:25:58;5.22;;;2.67;;
25962;SDS011;13760;52.588;13.406;2023-09-19T02:28:25;6.65;;;2.55;;
25962;SDS011;13760;52.588;13.406;2023-09-19T02:30:54;4.68;;;2.42;;
25962;SDS011;13760;52.588;13.406;2023-09-19T02:33:21;6.32;;;2.33;;
25962;SDS011;13760;52.588;13.406;2023-09-19T02:35:46;6.25;;;2.50;;
25962;SDS011;13760;52.588;13.406;2023-09-19T02:38:12;5.85;;;2.30;;
25962;SDS011;13760;52.588;13.406;2023-09-19T02:40:38;4.28;;;2.38;;
25962;SDS011;13760;52.588;13.406;2023-09-19T02:43:04;5.93;;;2.10;;
25962;SDS011;13760;52.588;13.406;2023-09-19T02:45:30;6.05;;;2.28;;
25962;SDS011;13760;52.588;13.406;2023-09-19T02:47:56;3.70;;;2.40;;
25962;SDS011;13760;52.588;13.406;2023-09-19T02:50:22;3.55;;;2.22;;
25962;SDS011;13760;52.588;13.406;2023-09-19T02:52:47;4.82;;;2.40;;
25962;SDS011;13760;52.588;13.406;2023-09-19T02:55:13;8.18;;;2.83;;
25962;SDS011;13760;52.588;13.406;2023-09-19T02:57:52;6.22;;;2.50;;
25962;SDS011;13760;52.588;13.406;2023-09-19T03:00:19;4.60;;;2.30;;
25962;SDS011;13760;52.588;13.406;2023-09-19T03:02:46;3.88;;;2.20;;
25962;SDS011;13760;52.588;13.406;2023-09-19T03:05:21;5.82;;;2.40;;
25962;SDS011;13760;52.588;13.406;2023-09-19T03:07:51;5.90;;;2.30;;
25962;SDS011;13760;52.588;13.406;2023-09-19T03:10:17;5.85;;;2.28;;
25962;SDS011;13760;52.588;13.406;2023-09-19T03:12:43;4.95;;;2.10;;
25962;SDS011;13760;52.588;13.406;2023-09-19T03:15:09;6.43;;;2.58;;
25962;SDS011;13760;52.588;13.406;2023-09-19T03:17:35;3.67;;;2.05;;
25962;SDS011;13760;52.588;13.406;2023-09-19T03:20:02;6.15;;;2.78;;
25962;SDS011;13760;52.588;13.406;2023-09-19T03:22:33;3.75;;;2.10;;
25962;SDS011;13760;52.588;13.406;2023-09-19T03:24:59;9.63;;;2.10;;
25962;SDS011;13760;52.588;13.406;2023-09-19T03:27:25;4.55;;;2.17;;
25962;SDS011;13760;52.588;13.406;2023-09-19T03:29:51;4.20;;;1.88;;
25962;SDS011;13760;52.588;13.406;2023-09-19T03:32:18;3.60;;;1.83;;
25962;SDS011;13760;52.588;13.406;2023-09-19T03:34:43;4.75;;;1.80;;
25962;SDS011;13760;52.588;13.406;2023-09-19T03:37:09;2.40;;;1.55;;
25962;SDS011;13760;52.588;13.406;2023-09-19T03:39:35;4.75;;;1.90;;
25962;SDS011;13760;52.588;13.406;2023-09-19T03:42:01;3.15;;;1.83;;
25962;SDS011;13760;52.588;13.406;2023-09-19T03:44:29;4.15;;;1.60;;
25962;SDS011;13760;52.588;13.406;2023-09-19T03:46:55;3.78;;;1.77;;
25962;SDS011;13760;52.588;13.406;2023-09-19T03:49:21;3.75;;;2.00;;
25962;SDS011;13760;52.588;13.406;2023-09-19T03:51:47;2.50;;;1.45;;
25962;SDS011;13760;52.588;13.406;2023-09-19T03:54:13;7.00;;;1.98;;
25962;SDS011;13760;52.588;13.406;2023-09-19T03:56:38;5.38;;;1.50;;
25962;SDS011;13760;52.588;13.406;2023-09-19T03:59:04;2.42;;;1.50;;
25962;SDS011;13760;52.588;13.406;2023-09-19T04:01:29;5.28;;;1.85;;
25962;SDS011;13760;52.588;13.406;2023-09-19T04:03:57;1.95;;;1.33;;
25962;SDS011;13760;52.588;13.406;2023-09-19T04:06:23;3.47;;;1.40;;
25962;SDS011;13760;52.588;13.406;2023-09-19T04:08:48;3.63;;;1.50;;
25962;SDS011;13760;52.588;13.406;2023-09-19T04:11:14;3.05;;;1.50;;
25962;SDS011;13760;52.588;13.406;2023-09-19T04:13:39;3.58;;;1.58;;
25962;SDS011;13760;52.588;13.406;2023-09-19T04:16:05;3.65;;;1.45;;
25962;SDS011;13760;52.588;13.406;2023-09-19T04:18:34;4.47;;;1.50;;
25962;SDS011;13760;52.588;13.406;2023-09-19T04:21:03;3.63;;;1.42;;
25962;SDS011;13760;52.588;13.406;2023-09-19T04:23:30;3.47;;;1.35;;
25962;SDS011;13760;52.588;13.406;2023-09-19T04:25:56;3.70;;;1.65;;
25962;SDS011;13760;52.588;13.406;2023-09-19T04:28:22;5.05;;;1.70;;
25962;SDS011;13760;52.588;13.406;2023-09-19T04:30:50;2.67;;;1.50;;
25962;SDS011;13760;52.588;13.406;2023-09-19T04:33:19;8.07;;;1.60;;
25962;SDS011;13760;52.588;13.406;2023-09-19T04:35:44;4.95;;;1.73;;
25962;SDS011;13760;52.588;13.406;2023-09-19T04:38:13;3.08;;;1.50;;
25962;SDS011;13760;52.588;13.406;2023-09-19T04:40:40;6.75;;;1.55;;
25962;SDS011;13760;52.588;13.406;2023-09-19T04:43:05;2.75;;;1.88;;
25962;SDS011;13760;52.588;13.406;2023-09-19T04:45:32;3.72;;;1.48;;
25962;SDS011;13760;52.588;13.406;2023-09-19T04:47:58;5.53;;;2.00;;
25962;SDS011;13760;52.588;13.406;2023-09-19T04:50:23;3.92;;;1.85;;
25962;SDS011;13760;52.588;13.406;2023-09-19T04:52:51;6.32;;;2.20;;
25962;SDS011;13760;52.588;13.406;2023-09-19T04:55:18;5.82;;;2.13;;
25962;SDS011;13760;52.588;13.406;2023-09-19T04:57:45;4.25;;;1.95;;
25962;SDS011;13760;52.588;13.406;2023-09-19T05:00:15;3.33;;;2.00;;
25962;SDS011;13760;52.588;13.406;2023-09-19T05:02:44;4.70;;;2.35;;
25962;SDS011;13760;52.588;13.406;2023-09-19T05:05:14;4.13;;;2.20;;
25962;SDS011;13760;52.588;13.406;2023-09-19T05:07:41;5.32;;;2.05;;
25962;SDS011;13760;52.588;13.406;2023-09-19T05:10:08;3.50;;;2.47;;
25962;SDS011;13760;52.588;13.406;2023-09-19T05:12:35;6.82;;;2.22;;
25962;SDS011;13760;52.588;13.406;2023-09-19T05:15:07;4.28;;;2.17;;
25962;SDS011;13760;52.588;13.406;2023-09-19T05:17:33;4.75;;;2.00;;
25962;SDS011;13760;52.588;13.406;2023-09-19T05:19:59;6.38;;;2.05;;
25962;SDS011;13760;52.588;13.406;2023-09-19T05:22:49;3.40;;;1.88;;
25962;SDS011;13760;52.588;13.406;2023-09-19T05:25:15;4.38;;;1.80;;
25962;SDS011;13760;52.588;13.406;2023-09-19T05:27:43;3.50;;;1.67;;
25962;SDS011;13760;52.588;13.406;2023-09-19T05:30:09;8.40;;;2.05;;
25962;SDS011;13760;52.588;13.406;2023-09-19T05:32:35;4.80;;;1.80;;
25962;SDS011;13760;52.588;13.406;2023-09-19T05:35:01;3.60;;;1.70;;
25962;SDS011;13760;52.588;13.406;2023-09-19T05:37:26;4.05;;;1.90;;
25962;SDS011;13760;52.588;13.406;2023-09-19T05:39:52;4.35;;;1.95;;
25962;SDS011;13760;52.588;13.406;2023-09-19T05:42:18;3.63;;;1.80;;
25962;SDS011;13760;52.588;13.406;2023-09-19T05:44:44;4.15;;;2.20;;
25962;SDS011;13760;52.588;13.406;2023-09-19T05:47:09;8.00;;;2.10;;
25962;SDS011;13760;52.588;13.406;2023-09-19T05:49:35;5.63;;;2.05;;
25962;SDS011;13760;52.588;13.406;2023-09-19T05:52:06;3.90;;;2.03;;
25962;SDS011;13760;52.588;13.406;2023-09-19T05:54:32;5.30;;;2.05;;
25962;SDS011;13760;52.588;13.406;2023-09-19T05:56:59;6.03;;;2.28;;
25962;SDS011;13760;52.588;13.406;2023-09-19T05:59:25;8.40;;;2.67;;
25962;SDS011;13760;52.588;13.406;2023-09-19T06:01:51;5.68;;;2.53;;
25962;SDS011;13760;52.588;13.406;2023-09-19T06:04:17;5.97;;;2.30;;
25962;SDS011;13760;52.588;13.406;2023-09-19T06:06:44;5.82;;;1.90;;
25962;SDS011;13760;52.588;13.406;2023-09-19T06:09:09;5.68;;;2.30;;
25962;SDS011;13760;52.588;13.406;2023-09-19T06:11:35;5.53;;;2.53;;
25962;SDS011;13760;52.588;13.406;2023-09-19T06:14:01;6.20;;;2.38;;
25962;SDS011;13760;52.588;13.406;2023-09-19T06:16:30;3.67;;;1.80;;
25962;SDS011;13760;52.588;13.406;2023-09-19T06:18:59;7.72;;;2.08;;
25962;SDS011;13760;52.588;13.406;2023-09-19T06:21:26;3.80;;;1.80;;
25962;SDS011;13760;52.588;13.406;2023-09-19T06:23:52;4.82;;;2.08;;
25962;SDS011;13760;52.588;13.406;2023-09-19T06:26:18;5.45;;;1.80;;
25962;SDS011;13760;52.588;13.406;2023-09-19T06:28:44;5.07;;;1.80;;
25962;SDS011;13760;52.588;13.406;2023-09-19T06:31:10;6.80;;;2.25;;
25962;SDS011;13760;52.588;13.406;2023-09-19T06:33:36;3.75;;;2.25;;
25962;SDS011;13760;52.588;13.406;2023-09-19T06:36:05;4.65;;;1.83;;
25962;SDS011;13760;52.588;13.406;2023-09-19T06:38:31;3.67;;;2.10;;
25962;SDS011;13760;52.588;13.406;2023-09-19T06:40:59;3.70;;;2.00;;
25962;SDS011;13760;52.588;13.406;2023-09-19T06:43:26;5.07;;;2.25;;
25962;SDS011;13760;52.588;13.406;2023-09-19T06:45:53;3.63;;;1.98;;
25962;SDS011;13760;52.588;13.406;2023-09-19T06:48:19;5.07;;;2.20;;
25962;SDS011;13760;52.588;13.406;2023-09-19T06:50:46;6.25;;;2.17;;
25962;SDS011;13760;52.588;13.406;2023-09-19T06:53:13;5.10;;;2.10;;
25962;SDS011;13760;52.588;13.406;2023-09-19T06:55:38;4.53;;;2.03;;
25962;SDS011;13760;52.588;13.406;2023-09-19T06:58:05;7.60;;;2.45;;
25962;SDS011;13760;52.588;13.406;2023-09-19T07:00:31;5.85;;;2.33;;
25962;SDS011;13760;52.588;13.406;2023-09-19T07:03:07;6.45;;;2.40;;
25962;SDS011;13760;52.588;13.406;2023-09-19T07:05:36;7.50;;;2.30;;
25962;SDS011;13760;52.588;13.406;2023-09-19T07:08:03;9.48;;;2.25;;
25962;SDS011;13760;52.588;13.406;2023-09-19T07:10:30;10.80;;;2.70;;
25962;SDS011;13760;52.588;13.406;2023-09-19T07:13:03;6.88;;;2.20;;
25962;SDS011;13760;52.588;13.406;2023-09-19T07:15:33;8.15;;;2.42;;
25962;SDS011;13760;52.588;13.406;2023-09-19T07:18:05;3.85;;;1.90;;
25962;SDS011;13760;52.588;13.406;2023-09-19T07:20:31;7.63;;;2.35;;
25962;SDS011;13760;52.588;13.406;2023-09-19T07:22:58;5.28;;;2.25;;
25962;SDS011;13760;52.588;13.406;2023-09-19T07:25:27;5.63;;;2.17;;
25962;SDS011;13760;52.588;13.406;2023-09-19T07:27:54;6.60;;;2.42;;
25962;SDS011;13760;52.588;13.406;2023-09-19T07:30:21;4.97;;;2.10;;
25962;SDS011;13760;52.588;13.406;2023-09-19T07:32:47;5.10;;;2.50;;
25962;SDS011;13760;52.588;13.406;2023-09-19T07:35:13;6.55;;;2.15;;
25962;SDS011;13760;52.588;13.406;2023-09-19T07:37:40;5.45;;;2.15;;
25962;SDS011;13760;52.588;13.406;2023-09-19T07:40:05;5.15;;;2.30;;
25962;SDS011;13760;52.588;13.406;2023-09-19T07:42:34;5.13;;;2.08;;
25962;SDS011;13760;52.588;13.406;2023-09-19T07:45:04;6.13;;;2.40;;
25962;SDS011;13760;52.588;13.406;2023-09-19T07:47:29;7.70;;;2.20;;
25962;SDS011;13760;52.588;13.406;2023-09-19T07:49:57;4.28;;;2.28;;
25962;SDS011;13760;52.588;13.406;2023-09-19T07:52:23;7.75;;;2.40;;
25962;SDS011;13760;52.588;13.406;2023-09-19T07:54:49;7.15;;;2.33;;
25962;SDS011;13760;52.588;13.406;2023-09-19T07:57:15;7.07;;;2.40;;
25962;SDS011;13760;52.588;13.406;2023-09-19T07:59:41;6.47;;;2.40;;
25962;SDS011;13760;52.588;13.406;2023-09-19T08:02:07;9.02;;;2.72;;
25962;SDS011;13760;52.588;13.406;2023-09-19T08:04:34;7.18;;;3.05;;
25962;SDS011;13760;52.588;13.406;2023-09-19T08:07:00;5.85;;;2.72;;
25962;SDS011;13760;52.588;13.406;2023-09-19T08:09:28;6.65;;;2.83;;
25962;SDS011;13760;52.588;13.406;2023-09-19T08:11:58;8.18;;;2.90;;
25962;SDS011;13760;52.588;13.406;2023-09-19T08:14:23;6.15;;;2.72;;
25962;SDS011;13760;52.588;13.406;2023-09-19T08:16:50;7.03;;;2.53;;
25962;SDS011;13760;52.588;13.406;2023-09-19T08:19:16;5.88;;;2.30;;
25962;SDS011;13760;52.588;13.406;2023-09-19T08:21:41;5.30;;;2.50;;
25962;SDS011;13760;52.588;13.406;2023-09-19T08:24:11;5.78;;;2.47;;
25962;SDS011;13760;52.588;13.406;2023-09-19T08:26:37;6.97;;;2.45;;
25962;SDS011;13760;52.588;13.406;2023-09-19T08:29:03;5.55;;;2.33;;
25962;SDS011;13760;52.588;13.406;2023-09-19T08:31:29;6.47;;;2.40;;
25962;SDS011;13760;52.588;13.406;2023-09-19T08:33:55;10.02;;;2.33;;
25962;SDS011;13760;52.588;13.406;2023-09-19T08:36:20;7.10;;;2.47;;
25962;SDS011;13760;52.588;13.406;2023-09-19T08:38:46;9.57;;;2.40;;
25962;SDS011;13760;52.588;13.406;2023-09-19T08:41:11;5.10;;;2.72;;
25962;SDS011;13760;52.588;13.406;2023-09-19T08:43:37;7.95;;;2.60;;
25962;SDS011;13760;52.588;13.406;2023-09-19T08:48:38;6.93;;;2.90;;
25962;SDS011;13760;52.588;13.406;2023-09-19T08:51:15;6.20;;;2.40;;
25962;SDS011;13760;52.588;13.406;2023-09-19T08:54:21;7.30;;;2.42;;
25962;SDS011;13760;52.588;13.406;2023-09-19T08:56:51;6.63;;;2.50;;
25962;SDS011;13760;52.588;13.406;2023-09-19T08:59:21;7.15;;;2.47;;
25962;SDS011;13760;52.588;13.406;2023-09-19T09:01:51;8.38;;;2.78;;
25962;SDS011;13760;52.588;13.406;2023-09-19T09:04:19;6.80;;;2.40;;
25962;SDS011;13760;52.588;13.406;2023-09-19T09:06:45;8.57;;;2.45;;
25962;SDS011;13760;52.588;13.406;2023-09-19T09:09:14;5.07;;;2.45;;
25962;SDS011;13760;52.588;13.406;2023-09-19T09:11:40;6.88;;;2.65;;
25962;SDS011;13760;52.588;13.406;2023-09-19T09:14:06;6.70;;;2.55;;
25962;SDS011;13760;52.588;13.406;2023-09-19T09:16:36;6.93;;;2.72;;
25962;SDS011;13760;52.588;13.406;2023-09-19T09:19:01;6.20;;;2.40;;
25962;SDS011;13760;52.588;13.406;2023-09-19T09:21:27;8.27;;;2.40;;
25962;SDS011;13760;52.588;13.406;2023-09-19T09:23:53;8.52;;;3.00;;
25962;SDS011;13760;52.588;13.406;2023-09-19T09:29:04;8.05;;;2.50;;
25962;SDS011;13760;52.588;13.406;2023-09-19T09:31:29;6.93;;;2.30;;
25962;SDS011;13760;52.588;13.406;2023-09-19T09:33:55;7.97;;;2.80;;
25962;SDS011;13760;52.588;13.406;2023-09-19T09:36:43;10.25;;;2.63;;
25962;SDS011;13760;52.588;13.406;2023-09-19T09:39:13;8.13;;;3.03;;
25962;SDS011;13760;52.588;13.406;2023-09-19T09:41:43;7.65;;;2.63;;
25962;SDS011;13760;52.588;13.406;2023-09-19T09:44:14;8.30;;;2.60;;
25962;SDS011;13760;52.588;13.406;2023-09-19T09:46:44;10.38;;;2.78;;
25962;SDS011;13760;52.588;13.406;2023-09-19T09:49:23;9.10;;;2.75;;
25962;SDS011;13760;52.588;13.406;2023-09-19T09:54:25;6.88;;;2.53;;
25962;SDS011;13760;52.588;13.406;2023-09-19T09:57:02;6.03;;;2.55;;
25962;SDS011;13760;52.588;13.406;2023-09-19T09:59:54;8.05;;;2.72;;
25962;SDS011;13760;52.588;13.406;2023-09-19T10:02:39;12.00;;;3.30;;
25962;SDS011;13760;52.588;13.406;2023-09-19T10:05:19;11.93;;;3.40;;
25962;SDS011;13760;52.588;13.406;2023-09-19T10:07:45;7.63;;;3.10;;
25962;SDS011;13760;52.588;13.406;2023-09-19T10:10:31;8.40;;;3.10;;
25962;SDS011;13760;52.588;13.406;2023-09-19T10:13:04;9.48;;;3.30;;
25962;SDS011;13760;52.588;13.406;2023-09-19T10:15:33;6.70;;;3.00;;
25962;SDS011;13760;52.588;13.406;2023-09-19T10:18:01;9.52;;;3.00;;
25962;SDS011;13760;52.588;13.406;2023-09-19T10:20:30;9.95;;;3.05;;
25962;SDS011;13760;52.588;13.406;2023-09-19T10:23:10;11.48;;;3.17;;
25962;SDS011;13760;52.588;13.406;2023-09-19T10:25:38;7.25;;;3.05;;
25962;SDS011;13760;52.588;13.406;2023-09-19T10:28:08;10.80;;;2.85;;
25962;SDS011;13760;52.588;13.406;2023-09-19T10:30:36;8.73;;;2.88;;
25962;SDS011;13760;52.588;13.406;2023-09-19T10:33:09;9.10;;;2.75;;
25962;SDS011;13760;52.588;13.406;2023-09-19T10:35:38;10.38;;;3.20;;
25962;SDS011;13760;52.588;13.406;2023-09-19T10:38:19;10.07;;;2.80;;
25962;SDS011;13760;52.588;13.406;2023-09-19T10:40:49;7.68;;;2.83;;
25962;SDS011;13760;52.588;13.406;2023-09-19T10:43:20;7.93;;;2.88;;
25962;SDS011;13760;52.588;13.406;2023-09-19T10:45:49;6.90;;;2.90;;
25962;SDS011;13760;52.588;13.406;2023-09-19T10:48:17;12.27;;;2.85;;
25962;SDS011;13760;52.588;13.406;2023-09-19T10:50:51;8.48;;;2.88;;
25962;SDS011;13760;52.588;13.406;2023-09-19T10:53:31;7.65;;;2.88;;
25962;SDS011;13760;52.588;13.406;2023-09-19T10:56:10;8.02;;;2.90;;
25962;SDS011;13760;52.588;13.406;2023-09-19T10:58:44;8.63;;;2.90;;
25962;SDS011;13760;52.588;13.406;2023-09-19T11:01:10;10.98;;;3.25;;
25962;SDS011;13760;52.588;13.406;2023-09-19T11:03:43;7.13;;;2.60;;
25962;SDS011;13760;52.588;13.406;2023-09-19T11:06:13;7.60;;;3.13;;
25962;SDS011;13760;52.588;13.406;2023-09-19T11:08:51;7.90;;;2.90;;
25962;SDS011;13760;52.588;13.406;2023-09-19T11:11:50;8.07;;;2.80;;
25962;SDS011;13760;52.588;13.406;2023-09-19T11:30:47;8.48;;;2.67;;
25962;SDS011;13760;52.588;13.406;2023-09-19T11:46:28;10.23;;;3.03;;
25962;SDS011;13760;52.588;13.406;2023-09-19T11:49:15;8.50;;;2.90;;
25962;SDS011;13760;52.588;13.406;2023-09-19T11:51:45;7.57;;;2.58;;
25962;SDS011;13760;52.588;13.406;2023-09-19T11:54:12;8.95;;;2.75;;
25962;SDS011;13760;52.588;13.406;2023-09-19T11:56:43;8.73;;;2.33;;
25962;SDS011;13760;52.588;13.406;2023-09-19T11:59:19;6.60;;;2.03;;
25962;SDS011;13760;52.588;13.406;2023-09-19T12:02:01;9.02;;;2.15;;
25962;SDS011;13760;52.588;13.406;2023-09-19T12:04:42;7.30;;;2.30;;
25962;SDS011;13760;52.588;13.406;2023-09-19T12:07:14;6.00;;;1.90;;
25962;SDS011;13760;52.588;13.406;2023-09-19T12:09:41;7.83;;;2.37;;
25962;SDS011;13760;52.588;13.406;2023-09-19T12:12:09;7.72;;;2.17;;
25962;SDS011;13760;52.588;13.406;2023-09-19T12:14:47;8.65;;;2.40;;
25962;SDS011;13760;52.588;13.406;2023-09-19T12:17:13;10.70;;;2.28;;
25962;SDS011;13760;52.588;13.406;2023-09-19T12:19:40;6.70;;;2.50;;
25962;SDS011;13760;52.588;13.406;2023-09-19T12:22:15;8.50;;;2.60;;
25962;SDS011;13760;52.588;13.406;2023-09-19T12:24:43;8.43;;;2.22;;
25962;SDS011;13760;52.588;13.406;2023-09-19T12:27:09;8.90;;;2.40;;
25962;SDS011;13760;52.588;13.406;2023-09-19T12:29:47;6.75;;;2.20;;
25962;SDS011;13760;52.588;13.406;2023-09-19T12:32:33;4.90;;;2.10;;
25962;SDS011;13760;52.588;13.406;2023-09-19T12:35:05;7.95;;;2.28;;
25962;SDS011;13760;52.588;13.406;2023-09-19T12:37:42;9.90;;;2.47;;
25962;SDS011;13760;52.588;13.406;2023-09-19T12:40:13;9.40;;;2.20;;
25962;SDS011;13760;52.588;13.406;2023-09-19T12:42:47;9.25;;;2.28;;
25962;SDS011;13760;52.588;13.406;2023-09-19T12:45:14;6.30;;;1.80;;
25962;SDS011;13760;52.588;13.406;2023-09-19T12:51:12;4.70;;;1.60;;
25962;SDS011;13760;52.588;13.406;2023-09-19T12:56:11;7.18;;;1.90;;
25962;SDS011;13760;52.588;13.406;2023-09-19T13:01:18;6.07;;;2.10;;
25962;SDS011;13760;52.588;13.406;2023-09-19T13:03:44;5.82;;;2.22;;
25962;SDS011;13760;52.588;13.406;2023-09-19T13:06:10;6.35;;;1.90;;
25962;SDS011;13760;52.588;13.406;2023-09-19T13:08:40;9.38;;;2.28;;
25962;SDS011;13760;52.588;13.406;2023-09-19T13:13:46;9.40;;;2.25;;
25962;SDS011;13760;52.588;13.406;2023-09-19T13:16:20;6.90;;;1.88;;
25962;SDS011;13760;52.588;13.406;2023-09-19T13:18:51;8.20;;;2.20;;
25962;SDS011;13760;52.588;13.406;2023-09-19T13:21:31;3.97;;;1.88;;
25962;SDS011;13760;52.588;13.406;2023-09-19T13:26:48;6.57;;;1.98;;
25962;SDS011;13760;52.588;13.406;2023-09-19T13:29:14;7.20;;;2.15;;
25962;SDS011;13760;52.588;13.406;2023-09-19T13:31:45;9.68;;;2.00;;
25962;SDS011;13760;52.588;13.406;2023-09-19T13:34:11;5.13;;;2.05;;
25962;SDS011;13760;52.588;13.406;2023-09-19T13:36:39;5.50;;;1.92;;
25962;SDS011;13760;52.588;13.406;2023-09-19T13:39:04;4.47;;;1.70;;
25962;SDS011;13760;52.588;13.406;2023-09-19T13:41:31;6.20;;;2.05;;
25962;SDS011;13760;52.588;13.406;2023-09-19T13:43:57;7.78;;;1.95;;
25962;SDS011;13760;52.588;13.406;2023-09-19T13:46:23;6.30;;;2.17;;
25962;SDS011;13760;52.588;13.406;2023-09-19T13:48:51;5.93;;;2.10;;
25962;SDS011;13760;52.588;13.406;2023-09-19T13:51:20;6.07;;;2.00;;
25962;SDS011;13760;52.588;13.406;2023-09-19T13:53:48;6.88;;;2.10;;
25962;SDS011;13760;52.588;13.406;2023-09-19T13:56:15;7.10;;;1.98;;
25962;SDS011;13760;52.588;13.406;2023-09-19T13:58:41;4.75;;;1.90;;
25962;SDS011;13760;52.588;13.406;2023-09-19T14:01:06;8.30;;;1.92;;
25962;SDS011;13760;52.588;13.406;2023-09-19T14:03:37;7.07;;;2.22;;
25962;SDS011;13760;52.588;13.406;2023-09-19T14:06:04;4.70;;;1.88;;
25962;SDS011;13760;52.588;13.406;2023-09-19T14:08:29;8.88;;;2.00;;
25962;SDS011;13760;52.588;13.406;2023-09-19T14:10:55;6.32;;;2.08;;
25962;SDS011;13760;52.588;13.406;2023-09-19T14:13:21;7.93;;;2.03;;
25962;SDS011;13760;52.588;13.406;2023-09-19T14:15:46;5.18;;;1.98;;
25962;SDS011;13760;52.588;13.406;2023-09-19T14:18:12;7.85;;;1.63;;
25962;SDS011;13760;52.588;13.406;2023-09-19T14:20:38;5.80;;;1.90;;
25962;SDS011;13760;52.588;13.406;2023-09-19T14:23:06;5.50;;;1.95;;
25962;SDS011;13760;52.588;13.406;2023-09-19T14:25:35;7.75;;;1.80;;
25962;SDS011;13760;52.588;13.406;2023-09-19T14:28:03;5.93;;;2.03;;
25962;SDS011;13760;52.588;13.406;2023-09-19T14:30:29;5.95;;;1.77;;
25962;SDS011;13760;52.588;13.406;2023-09-19T14:32:55;5.55;;;1.85;;
25962;SDS011;13760;52.588;13.406;2023-09-19T14:35:22;6.80;;;1.90;;
25962;SDS011;13760;52.588;13.406;2023-09-19T14:37:48;6.78;;;2.08;;
25962;SDS011;13760;52.588;13.406;2023-09-19T14:40:14;4.93;;;1.83;;
25962;SDS011;13760;52.588;13.406;2023-09-19T14:42:42;3.85;;;1.83;;
25962;SDS011;13760;52.588;13.406;2023-09-19T14:45:10;5.20;;;2.05;;
25962;SDS011;13760;52.588;13.406;2023-09-19T14:47:36;6.47;;;1.98;;
25962;SDS011;13760;52.588;13.406;2023-09-19T14:50:02;5.35;;;2.05;;
25962;SDS011;13760;52.588;13.406;2023-09-19T14:52:32;5.10;;;1.92;;
25962;SDS011;13760;52.588;13.406;2023-09-19T14:54:58;7.03;;;2.00;;
25962;SDS011;13760;52.588;13.406;2023-09-19T14:57:24;5.70;;;2.00;;
25962;SDS011;13760;52.588;13.406;2023-09-19T14:59:54;8.18;;;2.33;;
25962;SDS011;13760;52.588;13.406;2023-09-19T15:02:19;10.10;;;2.40;;
25962;SDS011;13760;52.588;13.406;2023-09-19T15:04:45;7.70;;;2.00;;
25962;SDS011;13760;52.588;13.406;2023-09-19T15:07:13;5.78;;;2.00;;
25962;SDS011;13760;52.588;13.406;2023-09-19T15:09:40;8.23;;;1.73;;
25962;SDS011;13760;52.588;13.406;2023-09-19T15:12:06;7.90;;;1.98;;
25962;SDS011;13760;52.588;13.406;2023-09-19T15:14:32;6.32;;;2.15;;
25962;SDS011;13760;52.588;13.406;2023-09-19T15:16:58;5.13;;;1.98;;
25962;SDS011;13760;52.588;13.406;2023-09-19T15:19:23;5.38;;;2.30;;
25962;SDS011;13760;52.588;13.406;2023-09-19T15:21:49;6.78;;;2.17;;
25962;SDS011;13760;52.588;13.406;2023-09-19T15:24:14;6.13;;;1.95;;
25962;SDS011;13760;52.588;13.406;2023-09-19T15:26:43;5.15;;;2.10;;
25962;SDS011;13760;52.588;13.406;2023-09-19T15:29:09;6.93;;;2.20;;
25962;SDS011;13760;52.588;13.406;2023-09-19T15:31:35;5.47;;;2.20;;
25962;SDS011;13760;52.588;13.406;2023-09-19T15:34:02;5.43;;;2.47;;
25962;SDS011;13760;52.588;13.406;2023-09-19T15:36:28;7.78;;;2.20;;
25962;SDS011;13760;52.588;13.406;2023-09-19T15:39:01;4.75;;;2.20;;
25962;SDS011;13760;52.588;13.406;2023-09-19T15:41:38;6.57;;;2.40;;
25962;SDS011;13760;52.588;13.406;2023-09-19T15:44:10;5.50;;;2.15;;